Kezdőlap
METAR-TAF:

METAR-TAF

Repülőterek :

Blanc-Sablon, Québec, Kanada

földrajzi szélesség: 51-27N, földrajzi hosszúság: 057-11W, magasság: 30 m

Jelenlegi meteorológiai megfigyelések

A jelentés 16 perccel ezelõtt készült, 21:56 UTC
Észak-északkeleti szél 5 kt
Hőmérséklet 1°C
Páratartalom 80%
Légköri nyomás 1018 hPa
Látótávolság: 24.1 km
Borult 4000 lábon

METAR: CYBX 202156Z 02005KT 15SM OVC040 01/M02 A3006 RMK SC8 SLP184

Idő: 17:12 (22:12 UTC)

Előrejelzés

A jelentés 2 órával és 24 perccel ezelõtt készült, 19:48 UTC
Az előrejelzés 20-én 20 óra UTC és 21-én 08 óra UTC között érvényes
Északkeleti szél 12 kt széllökések: 22 kt
Látótávolság: 10 km
Szakadozott felhőzet 3000 lábon
20-én 20 óra UTC és 21-én 08 óra UTC között ideiglenes
Borult 2000 lábon

TAF: CYBX 201948Z 2020/2108 05012G22KT P6SM BKN030 TEMPO 2020/2108 OVC020 RMK NXT FCST BY 210200Z

Meteorológiai megfigyelések és előrejelzések több, mint 4000 repülőtéren (METAR és TAF jelentéseket).

A térképen piros és sárga pontok jelzik az elérhető meteorológiai állomásokat.

Mozgassa az egeret a pont fölött, hogy megjelenjen az állomás neve.

Azután kattintson az időjárási megfigyelések és előrejelzések megtekintéséhez.

A térkép megváltoztatása: kattintson a fekete keresztel jelölt zöld gombra ráközelítéshez, a vonallal jelölt zöld gombra távolításhoz, vagy a zöld nyilakra a szomszédos térképek eléréséhez.


METAR-TAF: